Home   Weather   Wingsbach   Past weeks
Flag for Germany

Past Weather in Wingsbach, Hesse, Germany — April 2018

Currently: 51 °F. Overcast. (Weather station: Wiesbaden Airport, Germany). See more current weather

April 2018 Weather in Wingsbach — Graph

°F

High & Low Weather Summary for April 2018

 TemperatureHumidityPressure
High81 °F (Apr 19, 3:56 pm)100% (Apr 11, 4:16 am)30.47 "Hg (Apr 11, 4:16 am)
Low34 °F (Apr 6, 6:56 am)26% (Apr 19, 3:56 pm)29.42 "Hg (Apr 30, 1:56 am)
Average57 °F67%29.90 "Hg
* Reported Apr 1 12:56 am — Apr 30 11:56 pm, Wingsbach. Weather by CustomWeather, © 2022

Note: Actual official high and low records may vary slightly from our data, if they occured in-between our weather recording intervals... More about our weather records

Wingsbach Weather History for April 1, 2018

Scroll right to see more
 ConditionsComfort  
Time TempWeatherWind HumidityBarometerVisibility
12:56 am
Sun, Apr 1
49 °FMostly cloudy.9 mph58%29.60 "HgN/A
1:56 am48 °FOvercast.6 mph63%29.61 "HgN/A
2:56 am46 °FOvercast.6 mph69%29.62 "HgN/A
3:56 am45 °FPassing clouds.7 mph71%29.64 "HgN/A
4:56 am43 °FPassing clouds.5 mph74%29.65 "HgN/A
5:56 am43 °FPassing clouds.8 mph81%29.66 "HgN/A
6:56 am41 °FPassing clouds.6 mph81%29.67 "HgN/A
8:38 am43 °FLight rain. Broken clouds.10 mph81%29.71 "HgN/A
8:56 am43 °FBroken clouds.9 mph85%29.71 "HgN/A
9:26 am43 °FMostly cloudy.7 mph87%29.72 "HgN/A
9:41 am45 °FLight rain. Mostly cloudy.6 mph81%29.73 "HgN/A
9:56 am45 °FMostly cloudy.10 mph81%29.73 "HgN/A
10:06 am45 °FMostly cloudy.8 mph81%29.74 "HgN/A
10:26 am45 °FCloudy.10 mph81%29.74 "HgN/A
10:56 am46 °FCloudy.8 mph77%29.74 "HgN/A
11:36 am46 °FMostly cloudy.13 mph76%29.74 "HgN/A
11:56 am46 °FLight rain. Mostly cloudy.15 mph77%29.74 "HgN/A
12:12 pm46 °FLight rain. Mostly cloudy.13 mph76%29.76 "HgN/A
12:27 pm45 °FBroken clouds.15 mph81%29.76 "HgN/A
12:56 pm48 °FScattered clouds.16 mph71%29.76 "HgN/A
1:56 pm50 °FBroken clouds.9 mph62%29.78 "HgN/A
2:14 pm50 °FLight rain. Mostly cloudy.20 mph58%29.78 "HgN/A
2:30 pm46 °FMostly cloudy.12 mph71%29.78 "HgN/A
2:56 pm51 °FPartly sunny.12 mph62%29.78 "HgN/A
3:56 pm52 °FBroken clouds.13 mph54%29.79 "HgN/A
4:56 pm51 °FBroken clouds.10 mph53%29.81 "HgN/A
5:56 pm48 °FCloudy.9 mph63%29.84 "HgN/A
6:23 pm48 °FMostly cloudy.8 mph66%29.85 "HgN/A
6:56 pm49 °FOvercast.7 mph62%29.87 "HgN/A
8:02 pm48 °FLight rain. Mostly cloudy.5 mph62%29.89 "HgN/A
8:56 pm44 °FMostly cloudy.3 mph83%29.92 "HgN/A
9:56 pm45 °FOvercast.7 mph76%29.94 "HgN/A
10:56 pm45 °FOvercast.14 mph76%29.95 "HgN/A
11:56 pm45 °FOvercast.13 mph76%29.95 "HgN/A
Weather by CustomWeather, © 2022

See weather overview